createdAt,value
2023-05-10T00:07:24.303Z,5.40
2023-05-10T00:17:27.438Z,5.00
2023-05-10T00:27:30.593Z,5.70
2023-05-10T00:37:33.685Z,4.80
2023-05-10T00:47:37.066Z,4.40
2023-05-10T00:57:40.689Z,4.50
2023-05-10T01:07:43.905Z,4.30
2023-05-10T01:17:49.351Z,4.90
2023-05-10T01:28:22.793Z,4.80
2023-05-10T01:38:48.371Z,4.60
2023-05-10T01:48:58.850Z,3.90
2023-05-10T01:59:09.856Z,5.10
2023-05-10T02:09:15.405Z,5.70
2023-05-10T02:19:19.859Z,4.60
2023-05-10T02:29:25.764Z,4.60
2023-05-10T02:39:29.772Z,4.50
2023-05-10T02:49:33.790Z,5.30
2023-05-10T02:59:37.102Z,4.60
2023-05-10T03:09:41.341Z,5.00
2023-05-10T03:19:57.751Z,5.80
2023-05-10T03:30:03.457Z,4.90
2023-05-10T03:40:10.121Z,4.80
2023-05-10T03:50:15.395Z,4.80
2023-05-10T04:00:19.230Z,4.30
2023-05-10T04:10:24.257Z,4.90
2023-05-10T04:20:27.569Z,5.90
2023-05-10T04:30:30.743Z,6.10
2023-05-10T04:40:34.081Z,6.60
2023-05-10T04:50:37.699Z,6.30
2023-05-10T05:00:40.951Z,5.90
2023-05-10T05:10:44.227Z,5.60
2023-05-10T05:20:47.506Z,5.00
2023-05-10T05:30:50.623Z,8.10
2023-05-10T05:40:53.790Z,5.50
2023-05-10T05:50:57.797Z,5.20
2023-05-10T06:01:01.043Z,6.00
2023-05-10T06:11:05.281Z,3.70
2023-05-10T06:21:08.751Z,4.20
2023-05-10T06:31:13.059Z,3.30
2023-05-10T06:41:16.220Z,4.50
2023-05-10T06:51:19.454Z,3.60
2023-05-10T07:01:22.697Z,3.10
2023-05-10T07:11:26.047Z,2.90
2023-05-10T07:21:29.980Z,2.40
2023-05-10T07:31:33.132Z,2.20
2023-05-10T07:41:36.293Z,1.70
2023-05-10T07:51:39.494Z,1.60
2023-05-10T08:01:43.453Z,1.40
2023-05-10T08:11:46.484Z,1.70
2023-05-10T08:21:50.076Z,1.50
2023-05-10T08:31:53.267Z,1.60
2023-05-10T08:42:00.672Z,1.70
2023-05-10T08:52:06.643Z,1.80
2023-05-10T09:02:12.888Z,1.50
2023-05-10T09:12:16.763Z,1.90
2023-05-10T09:22:19.900Z,1.60
2023-05-10T09:32:22.973Z,1.70
2023-05-10T09:42:26.526Z,1.90
2023-05-10T09:52:29.782Z,1.70
2023-05-10T10:02:33.262Z,1.90
2023-05-10T10:12:36.913Z,2.60
2023-05-10T10:22:40.127Z,2.40
2023-05-10T10:33:03.922Z,1.90
2023-05-10T10:43:26.647Z,1.50
2023-05-10T10:53:30.205Z,1.50
2023-05-10T11:03:33.168Z,1.40
2023-05-10T11:13:50.965Z,1.40
2023-05-10T11:23:59.908Z,1.70
2023-05-10T11:34:03.053Z,1.40
2023-05-10T11:44:06.195Z,1.90
2023-05-10T11:54:11.548Z,1.70
2023-05-10T12:04:14.939Z,1.50
2023-05-10T12:14:20.629Z,1.60
2023-05-10T12:24:26.482Z,2.20
2023-05-10T12:34:37.289Z,1.60
2023-05-10T12:44:41.006Z,1.50
2023-05-10T12:54:44.102Z,1.60
2023-05-10T13:04:48.943Z,1.50
2023-05-10T13:14:54.026Z,1.60
2023-05-10T13:24:57.294Z,1.90
2023-05-10T13:35:00.537Z,1.70
2023-05-10T13:45:03.893Z,1.90
2023-05-10T13:55:07.349Z,1.50
2023-05-10T14:05:10.540Z,1.50
2023-05-10T14:15:13.740Z,1.60
2023-05-10T14:25:17.167Z,2.10
2023-05-10T14:35:21.507Z,1.70
2023-05-10T14:45:25.118Z,2.00
2023-05-10T14:55:28.251Z,2.50
2023-05-10T15:05:31.365Z,4.70
2023-05-10T15:15:34.943Z,1.90
2023-05-10T15:25:38.646Z,3.90
2023-05-10T15:35:42.213Z,2.60
2023-05-10T15:45:45.346Z,3.50
2023-05-10T15:55:48.790Z,2.70
2023-05-10T16:05:51.891Z,3.50
2023-05-10T16:15:55.283Z,1.90
2023-05-10T16:25:58.656Z,2.10
2023-05-10T16:36:01.680Z,3.40
2023-05-10T16:46:10.818Z,3.20
2023-05-10T16:56:14.054Z,2.50
2023-05-10T17:06:17.069Z,2.80
2023-05-10T17:16:21.511Z,4.00
2023-05-10T17:26:25.063Z,4.10
2023-05-10T17:36:28.640Z,3.70
2023-05-10T17:46:31.712Z,2.90
2023-05-10T17:56:34.948Z,3.70
2023-05-10T18:06:38.475Z,4.60
2023-05-10T18:16:43.278Z,4.70
2023-05-10T18:26:47.204Z,17.40
2023-05-10T18:36:50.345Z,18.40
2023-05-10T18:46:54.382Z,20.00
2023-05-10T18:56:58.948Z,17.10
2023-05-10T19:07:03.234Z,16.20
2023-05-10T19:17:06.351Z,15.20
2023-05-10T19:27:12.181Z,13.20
2023-05-10T19:37:17.520Z,11.90
2023-05-10T19:47:20.534Z,13.80
2023-05-10T19:57:24.197Z,12.00
2023-05-10T20:07:27.267Z,10.00
2023-05-10T20:17:30.480Z,11.80
2023-05-10T20:27:33.698Z,11.20
2023-05-10T20:37:38.068Z,10.50
2023-05-10T20:47:41.314Z,8.50
2023-05-10T20:57:45.290Z,7.40
2023-05-10T21:07:49.492Z,6.60
2023-05-10T21:17:54.096Z,8.30
2023-05-10T21:27:57.238Z,7.00
2023-05-10T21:38:00.362Z,7.00
2023-05-10T21:48:03.866Z,6.10
2023-05-10T21:58:07.149Z,6.20
2023-05-10T22:08:10.134Z,6.80
2023-05-10T22:18:13.217Z,6.60
2023-05-10T22:28:16.497Z,7.20
2023-05-10T22:38:19.670Z,6.40
2023-05-10T22:48:22.776Z,6.60
2023-05-10T22:58:26.619Z,7.10
2023-05-10T23:08:29.622Z,6.70
2023-05-10T23:18:32.778Z,6.40
2023-05-10T23:28:35.846Z,6.80
2023-05-10T23:38:39.571Z,6.10
2023-05-10T23:48:42.880Z,6.70
2023-05-10T23:58:46.496Z,5.80
